Time;durP1;ratioP1;P1;durP2;ratioP2;P2;SDS_P1;SDS_P2;PMS_P1;PMS_P2;Temp;Humidity;BMP_temperature;BMP_pressure;BME280_temperature;BME280_humidity;BME280_pressure;Samples;Min_cycle;Max_cycle;Signal;HPM_P1;HPM_P2
2021/07/31 00:02:04;;;;;;;;;;;17.00;99.90;;;;;;5093746;28;19999;-80
2021/07/31 00:04:30;;;;;;;;;;;16.90;99.90;;;;;;5093611;28;20291;-79
2021/07/31 00:06:55;;;;;;;;;;;16.90;99.90;;;;;;5075435;28;19930;-80
2021/07/31 00:09:21;;;;;;;;;;;17.10;99.90;;;;;;5093839;28;19946;-80
2021/07/31 00:11:47;;;;;;;;;;;17.00;99.90;;;;;;5093548;28;19910;-81
2021/07/31 00:14:13;;;;;;;;;;;16.90;99.90;;;;;;5075272;28;20291;-79
2021/07/31 00:16:38;;;;;;;;;;;16.80;99.90;;;;;;5093248;28;19969;-80
2021/07/31 00:19:04;;;;;;;;;;;16.70;99.90;;;;;;5093472;28;20321;-80
2021/07/31 00:21:29;;;;;;;;;;;16.70;99.90;;;;;;5093737;28;19904;-81
2021/07/31 00:23:55;;;;;;;;;;;16.80;99.90;;;;;;5093363;28;19911;-79
2021/07/31 00:26:21;;;;;;;;;;;16.80;99.90;;;;;;5093426;28;20376;-79
2021/07/31 00:28:46;;;;;;;;;;;17.10;99.90;;;;;;5093775;28;19904;-80
2021/07/31 00:31:12;;;;;;;;;;;17.20;99.90;;;;;;5096864;28;19990;-80
2021/07/31 00:33:38;;;;;;;;;;;17.30;99.90;;;;;;5097324;28;20012;-80
2021/07/31 00:36:04;;;;;;;;;;;17.30;99.90;;;;;;5097252;28;20336;-80
2021/07/31 00:38:29;;;;;;;;;;;17.30;99.90;;;;;;5097164;28;19915;-79
2021/07/31 00:40:55;;;;;;;;;;;17.40;99.90;;;;;;5097400;28;19957;-80
2021/07/31 00:43:20;;;;;;;;;;;17.30;99.90;;;;;;5097145;28;19904;-79
2021/07/31 00:45:46;;;;;;;;;;;16.90;99.90;;;;;;5078919;28;19904;-80
2021/07/31 00:48:11;;;;;;;;;;;16.80;99.90;;;;;;5097343;28;20315;-80
2021/07/31 00:50:37;;;;;;;;;;;16.80;99.90;;;;;;5096991;28;19930;-79
2021/07/31 00:53:03;;;;;;;;;;;16.50;99.90;;;;;;5096845;28;19915;-81
2021/07/31 00:55:28;;;;;;;;;;;16.40;99.90;;;;;;5096874;28;19973;-80
2021/07/31 00:57:56;;;;;;;;;;;16.50;99.90;;;;;;5096804;28;20351;-80
2021/07/31 01:00:21;;;;;;;;;;;16.40;99.90;;;;;;5096760;28;20296;-80
2021/07/31 01:02:47;;;;;;;;;;;16.40;99.90;;;;;;5097218;28;19904;-79
2021/07/31 01:05:13;;;;;;;;;;;16.50;99.90;;;;;;5096627;28;19904;-79
2021/07/31 01:07:39;;;;;;;;;;;16.40;99.90;;;;;;5096630;28;20007;-81
2021/07/31 01:10:05;;;;;;;;;;;16.40;99.90;;;;;;5096749;28;19911;-79
2021/07/31 01:12:32;;;;;;;;;;;16.30;99.90;;;;;;5078293;28;19951;-80
2021/07/31 01:14:57;;;;;;;;;;;16.20;99.90;;;;;;5096313;28;19912;-79
2021/07/31 01:17:23;;;;;;;;;;;16.10;99.90;;;;;;5096407;28;19965;-80
2021/07/31 01:19:49;;;;;;;;;;;16.10;99.90;;;;;;5096804;28;19908;-80
2021/07/31 01:22:14;;;;;;;;;;;16.20;99.90;;;;;;5096386;28;19904;-80
2021/07/31 01:24:40;;;;;;;;;;;16.20;99.90;;;;;;5096482;28;19910;-80
2021/07/31 01:27:06;;;;;;;;;;;16.20;99.90;;;;;;5096275;28;19957;-80
2021/07/31 01:29:31;;;;;;;;;;;16.00;99.90;;;;;;5096630;28;19911;-79
2021/07/31 01:31:57;;;;;;;;;;;15.90;99.90;;;;;;5096186;28;19911;-80
2021/07/31 01:34:23;;;;;;;;;;;16.00;99.90;;;;;;5096120;28;19908;-80
2021/07/31 01:36:48;;;;;;;;;;;16.10;99.90;;;;;;5096121;28;20273;-80
2021/07/31 01:39:14;;;;;;;;;;;16.20;99.90;;;;;;5095960;28;19904;-79
2021/07/31 01:41:40;;;;;;;;;;;16.20;99.90;;;;;;5094700;28;19919;-80
2021/07/31 01:44:06;;;;;;;;;;;16.20;99.90;;;;;;5095996;28;19904;-80
2021/07/31 01:46:31;;;;;;;;;;;16.20;99.90;;;;;;5095989;28;19911;-79
2021/07/31 01:48:57;;;;;;;;;;;16.20;99.90;;;;;;5095851;28;19904;-81
2021/07/31 01:51:23;;;;;;;;;;;16.20;99.90;;;;;;5095802;28;20301;-80
2021/07/31 01:53:48;;;;;;;;;;;16.20;99.90;;;;;;5095741;28;19911;-80
2021/07/31 01:56:14;;;;;;;;;;;16.20;99.90;;;;;;5095726;28;19911;-79
2021/07/31 01:58:39;;;;;;;;;;;16.20;99.90;;;;;;5077465;28;19903;-80
2021/07/31 02:01:05;;;;;;;;;;;16.10;99.90;;;;;;5095636;28;19904;-80
2021/07/31 02:03:30;;;;;;;;;;;16.10;99.90;;;;;;5095810;28;19998;-80
2021/07/31 02:05:56;;;;;;;;;;;15.90;99.90;;;;;;5095504;28;19911;-81
2021/07/31 02:08:22;;;;;;;;;;;16.10;99.90;;;;;;5077363;28;20387;-80
2021/07/31 02:10:48;;;;;;;;;;;16.20;99.90;;;;;;5095429;28;20041;-80
2021/07/31 02:13:13;;;;;;;;;;;16.30;99.90;;;;;;5095508;28;19915;-80
2021/07/31 02:15:40;;;;;;;;;;;16.20;99.90;;;;;;5095133;28;19920;-80
2021/07/31 02:18:05;;;;;;;;;;;16.20;99.90;;;;;;5095270;28;19908;-81
2021/07/31 02:20:31;;;;;;;;;;;16.00;99.90;;;;;;5095204;28;19926;-79
2021/07/31 02:22:57;;;;;;;;;;;16.00;99.90;;;;;;5095193;28;19930;-80
2021/07/31 02:25:22;;;;;;;;;;;16.10;99.90;;;;;;5076901;28;19965;-80
2021/07/31 02:27:50;;;;;;;;;;;16.00;99.90;;;;;;5095354;28;19904;-80
2021/07/31 02:30:15;;;;;;;;;;;16.00;99.90;;;;;;5095031;28;19950;-80
2021/07/31 02:32:41;;;;;;;;;;;16.00;99.90;;;;;;5094934;28;19947;-80
2021/07/31 02:35:07;;;;;;;;;;;16.00;99.90;;;;;;5094951;28;19904;-81
2021/07/31 02:37:33;;;;;;;;;;;15.90;99.90;;;;;;5095174;28;19911;-80
2021/07/31 02:39:58;;;;;;;;;;;15.90;99.90;;;;;;5094889;28;20307;-80
2021/07/31 02:42:24;;;;;;;;;;;15.90;99.90;;;;;;5094867;28;19904;-79
2021/07/31 02:44:50;;;;;;;;;;;15.80;99.90;;;;;;5094770;28;20326;-79
2021/07/31 02:47:15;;;;;;;;;;;15.80;99.90;;;;;;5095188;28;19904;-80
2021/07/31 02:49:41;;;;;;;;;;;15.70;99.90;;;;;;5094831;28;19912;-80
2021/07/31 02:52:06;;;;;;;;;;;15.60;99.90;;;;;;5094239;28;19938;-80
2021/07/31 02:54:32;;;;;;;;;;;15.60;99.90;;;;;;5094503;28;19908;-80
2021/07/31 02:56:57;;;;;;;;;;;15.40;99.90;;;;;;5094625;28;19958;-79
2021/07/31 02:59:23;;;;;;;;;;;15.40;99.90;;;;;;5076217;28;19904;-79
2021/07/31 03:01:49;;;;;;;;;;;15.50;99.90;;;;;;5094472;28;19915;-81
2021/07/31 03:04:15;;;;;;;;;;;15.40;99.90;;;;;;5094372;28;19912;-80
2021/07/31 03:06:40;;;;;;;;;;;15.30;99.90;;;;;;5094399;28;19904;-80
2021/07/31 03:09:06;;;;;;;;;;;15.50;99.90;;;;;;5094450;28;19912;-80
2021/07/31 03:11:32;;;;;;;;;;;15.30;99.90;;;;;;5094233;28;20280;-80
2021/07/31 03:13:57;;;;;;;;;;;15.40;99.90;;;;;;5094650;28;19951;-80
2021/07/31 03:16:23;;;;;;;;;;;15.50;99.90;;;;;;5093828;28;19994;-80
2021/07/31 03:18:49;;;;;;;;;;;15.60;99.90;;;;;;5094662;28;19915;-80
2021/07/31 03:21:14;;;;;;;;;;;15.60;99.90;;;;;;5094203;28;20356;-79
2021/07/31 03:23:40;;;;;;;;;;;15.50;99.90;;;;;;5094295;28;19953;-80
2021/07/31 03:26:05;;;;;;;;;;;15.60;99.90;;;;;;5094065;28;19911;-80
2021/07/31 03:28:31;;;;;;;;;;;15.60;99.90;;;;;;5094058;28;19904;-80
2021/07/31 03:30:57;;;;;;;;;;;15.70;99.90;;;;;;5093972;28;20511;-79
2021/07/31 03:33:23;;;;;;;;;;;15.80;99.90;;;;;;5093934;28;19908;-80
2021/07/31 03:35:50;;;;;;;;;;;15.70;99.90;;;;;;5093915;28;19919;-80
2021/07/31 03:38:16;;;;;;;;;;;15.70;99.90;;;;;;5093893;28;19904;-80
2021/07/31 03:40:42;;;;;;;;;;;15.90;99.90;;;;;;5094000;28;20003;-80
2021/07/31 03:43:07;;;;;;;;;;;15.90;99.90;;;;;;5093805;28;19904;-80
2021/07/31 03:45:33;;;;;;;;;;;16.10;99.90;;;;;;5093762;28;20429;-81
2021/07/31 03:47:58;;;;;;;;;;;15.90;99.90;;;;;;5093811;28;19908;-80
2021/07/31 03:50:24;;;;;;;;;;;16.00;99.90;;;;;;5093758;28;19904;-79
2021/07/31 03:52:50;;;;;;;;;;;15.80;99.90;;;;;;5093895;28;20379;-79
2021/07/31 03:55:15;;;;;;;;;;;15.90;99.90;;;;;;5075520;28;19904;-80
2021/07/31 03:57:41;;;;;;;;;;;16.10;99.90;;;;;;5093744;28;19904;-80
2021/07/31 04:00:07;;;;;;;;;;;16.10;99.90;;;;;;5093611;28;19995;-80
2021/07/31 04:02:33;;;;;;;;;;;16.10;99.90;;;;;;5093640;28;20015;-80
2021/07/31 04:04:59;;;;;;;;;;;16.00;99.90;;;;;;5077026;28;19947;-80
2021/07/31 04:07:25;;;;;;;;;;;16.00;99.90;;;;;;5097883;28;19904;-80
2021/07/31 04:09:51;;;;;;;;;;;16.10;99.90;;;;;;5097810;28;19934;-80
2021/07/31 04:12:17;;;;;;;;;;;16.20;99.90;;;;;;5079184;28;19999;-79
2021/07/31 04:14:43;;;;;;;;;;;16.20;99.90;;;;;;5097499;28;20003;-81
2021/07/31 04:17:08;;;;;;;;;;;16.10;99.90;;;;;;5097907;28;20362;-79
2021/07/31 04:19:34;;;;;;;;;;;16.20;99.90;;;;;;5097578;28;20280;-79
2021/07/31 04:21:59;;;;;;;;;;;16.10;99.90;;;;;;5097586;28;19961;-80
2021/07/31 04:24:25;;;;;;;;;;;16.20;99.90;;;;;;5097649;28;19915;-81
2021/07/31 04:26:51;;;;;;;;;;;16.40;99.90;;;;;;5097790;28;19964;-80
2021/07/31 04:29:17;;;;;;;;;;;16.50;99.90;;;;;;5097565;28;20376;-80
2021/07/31 04:31:43;;;;;;;;;;;16.60;99.90;;;;;;5097512;28;19908;-80
2021/07/31 04:34:08;;;;;;;;;;;16.60;99.90;;;;;;5097525;28;19915;-80
2021/07/31 04:36:34;;;;;;;;;;;16.50;99.90;;;;;;5097357;28;19911;-80
2021/07/31 04:39:00;;;;;;;;;;;16.50;99.90;;;;;;5097279;28;20041;-80
2021/07/31 04:41:26;;;;;;;;;;;16.40;99.90;;;;;;5097239;28;19908;-80
2021/07/31 04:43:51;;;;;;;;;;;16.30;99.90;;;;;;5097173;28;19935;-80
2021/07/31 04:46:17;;;;;;;;;;;16.30;99.90;;;;;;5097083;28;19957;-80
2021/07/31 04:48:42;;;;;;;;;;;16.20;99.90;;;;;;5097042;28;19952;-80
2021/07/31 04:51:11;;;;;;;;;;;16.20;99.90;;;;;;5096974;28;19904;-80
2021/07/31 04:53:37;;;;;;;;;;;16.40;99.90;;;;;;5096861;28;19908;-80
2021/07/31 04:56:02;;;;;;;;;;;16.40;99.90;;;;;;5096957;28;19904;-80
2021/07/31 04:58:28;;;;;;;;;;;16.50;99.90;;;;;;5097438;28;19904;-80
2021/07/31 05:01:00;;;;;;;;;;;16.50;99.90;;;;;;5096887;28;19911;-80
2021/07/31 05:03:26;;;;;;;;;;;16.60;99.90;;;;;;5078358;28;19908;-80
2021/07/31 05:05:52;;;;;;;;;;;16.20;99.90;;;;;;5096654;28;20363;-80
2021/07/31 05:08:17;;;;;;;;;;;16.00;99.90;;;;;;5096697;28;19904;-80
2021/07/31 05:10:44;;;;;;;;;;;16.20;99.90;;;;;;5096914;28;19965;-79
2021/07/31 05:13:10;;;;;;;;;;;16.40;99.90;;;;;;5096498;28;20249;-79
2021/07/31 05:15:37;;;;;;;;;;;16.10;99.90;;;;;;5096047;28;19990;-81
2021/07/31 05:18:02;;;;;;;;;;;16.00;99.90;;;;;;5096507;28;19911;-79
2021/07/31 05:20:28;;;;;;;;;;;16.00;99.90;;;;;;5096610;28;19904;-80
2021/07/31 05:22:54;;;;;;;;;;;16.10;99.90;;;;;;5096653;28;19904;-80
2021/07/31 05:25:20;;;;;;;;;;;15.90;99.90;;;;;;5096288;28;20324;-80
2021/07/31 05:27:45;;;;;;;;;;;16.00;99.90;;;;;;5078126;28;20319;-80
2021/07/31 05:30:11;;;;;;;;;;;15.90;99.90;;;;;;5096345;28;19911;-80
2021/07/31 05:32:37;;;;;;;;;;;16.00;99.90;;;;;;5096442;28;19912;-80
2021/07/31 05:35:03;;;;;;;;;;;15.80;99.90;;;;;;5096348;28;19911;-81
2021/07/31 05:37:31;;;;;;;;;;;15.80;99.90;;;;;;5096162;28;20380;-79
2021/07/31 05:39:57;;;;;;;;;;;15.70;99.90;;;;;;5096312;28;19990;-80
2021/07/31 05:42:23;;;;;;;;;;;15.80;99.90;;;;;;5096373;28;19942;-80
2021/07/31 05:44:53;;;;;;;;;;;16.00;99.90;;;;;;5096194;28;19912;-80
2021/07/31 05:47:23;;;;;;;;;;;16.00;99.90;;;;;;5096260;28;19911;-80
2021/07/31 05:49:49;;;;;;;;;;;16.30;99.90;;;;;;5077741;28;20367;-80
2021/07/31 05:52:15;;;;;;;;;;;16.20;99.90;;;;;;5096291;28;19943;-79
2021/07/31 05:54:40;;;;;;;;;;;16.40;99.90;;;;;;5095910;28;19908;-80
2021/07/31 05:57:06;;;;;;;;;;;16.40;99.90;;;;;;5096107;28;19904;-80
2021/07/31 05:59:31;;;;;;;;;;;16.20;99.90;;;;;;5095707;28;20382;-80
2021/07/31 06:01:57;;;;;;;;;;;16.20;99.90;;;;;;5095776;28;19991;-80
2021/07/31 06:04:23;;;;;;;;;;;16.40;99.90;;;;;;5095675;28;19910;-80
2021/07/31 06:06:48;;;;;;;;;;;16.40;99.90;;;;;;5095574;28;19919;-80
2021/07/31 06:09:14;;;;;;;;;;;16.40;99.90;;;;;;5095607;28;19968;-80
2021/07/31 06:11:39;;;;;;;;;;;16.40;99.90;;;;;;5077303;28;19915;-80
2021/07/31 06:14:05;;;;;;;;;;;16.50;99.90;;;;;;5095693;28;19915;-80
2021/07/31 06:16:30;;;;;;;;;;;16.70;99.90;;;;;;5094952;28;20002;-80
2021/07/31 06:18:57;;;;;;;;;;;16.50;99.90;;;;;;5095451;28;19904;-81
2021/07/31 06:21:22;;;;;;;;;;;16.40;99.90;;;;;;5095291;28;19904;-80
2021/07/31 06:23:48;;;;;;;;;;;16.40;99.90;;;;;;5095352;28;19911;-80
2021/07/31 06:26:14;;;;;;;;;;;16.50;99.90;;;;;;5095301;28;20334;-80
2021/07/31 06:28:39;;;;;;;;;;;16.40;99.90;;;;;;5094969;28;20429;-80
2021/07/31 06:31:06;;;;;;;;;;;16.40;99.90;;;;;;5095248;28;19904;-79
2021/07/31 06:33:32;;;;;;;;;;;16.50;99.90;;;;;;5094973;28;19908;-81
2021/07/31 06:35:57;;;;;;;;;;;16.60;99.90;;;;;;5094946;28;19904;-80
2021/07/31 06:38:23;;;;;;;;;;;16.70;99.90;;;;;;5095080;28;19904;-80
2021/07/31 06:40:48;;;;;;;;;;;16.60;99.90;;;;;;5094877;28;20440;-79
2021/07/31 06:43:14;;;;;;;;;;;16.70;99.90;;;;;;5094809;28;19911;-79
2021/07/31 06:45:40;;;;;;;;;;;16.70;99.90;;;;;;5094764;28;19988;-80
2021/07/31 06:48:06;;;;;;;;;;;16.90;99.90;;;;;;5076634;28;19904;-80
2021/07/31 06:50:32;;;;;;;;;;;16.80;99.90;;;;;;5094901;28;19904;-81
2021/07/31 06:52:57;;;;;;;;;;;16.60;99.90;;;;;;5094704;28;19961;-80
2021/07/31 06:55:23;;;;;;;;;;;16.70;99.90;;;;;;5094706;28;19950;-80
2021/07/31 06:57:48;;;;;;;;;;;16.60;99.90;;;;;;5094875;28;19910;-80
2021/07/31 07:00:14;;;;;;;;;;;16.60;99.90;;;;;;5094913;28;20279;-80
2021/07/31 07:02:40;;;;;;;;;;;16.90;99.90;;;;;;5094708;28;19908;-80
2021/07/31 07:05:05;;;;;;;;;;;17.10;99.90;;;;;;5094471;28;19907;-80
2021/07/31 07:07:31;;;;;;;;;;;17.20;99.90;;;;;;5094472;28;20003;-81
2021/07/31 07:09:56;;;;;;;;;;;17.40;99.90;;;;;;5076302;28;19910;-79
2021/07/31 07:12:22;;;;;;;;;;;17.20;99.90;;;;;;5094285;28;19911;-81
2021/07/31 07:14:48;;;;;;;;;;;17.60;99.90;;;;;;5094171;28;19916;-79
2021/07/31 07:17:13;;;;;;;;;;;17.20;99.90;;;;;;5094353;28;19919;-80
2021/07/31 07:19:39;;;;;;;;;;;17.40;99.90;;;;;;5094289;28;19994;-80
2021/07/31 07:22:04;;;;;;;;;;;17.30;99.90;;;;;;5094207;28;19904;-80
2021/07/31 07:24:33;;;;;;;;;;;17.40;99.90;;;;;;5094124;28;19908;-79
2021/07/31 07:26:58;;;;;;;;;;;17.40;99.90;;;;;;5094202;28;19910;-80
2021/07/31 07:29:24;;;;;;;;;;;17.50;99.90;;;;;;5094063;28;19999;-79
2021/07/31 07:31:49;;;;;;;;;;;17.40;99.90;;;;;;5094047;28;19953;-80
2021/07/31 07:34:15;;;;;;;;;;;17.40;99.90;;;;;;5093825;28;19961;-80
2021/07/31 07:36:41;;;;;;;;;;;17.50;99.90;;;;;;5093908;28;19904;-80
2021/07/31 07:39:06;;;;;;;;;;;18.00;99.90;;;;;;5093880;28;19958;-80
2021/07/31 07:41:32;;;;;;;;;;;17.80;99.90;;;;;;5093922;28;19904;-80
2021/07/31 07:43:57;;;;;;;;;;;17.70;99.90;;;;;;5094081;28;19999;-80
2021/07/31 07:46:23;;;;;;;;;;;17.50;99.90;;;;;;5094177;28;19907;-80
2021/07/31 07:48:50;;;;;;;;;;;17.60;99.90;;;;;;5093891;28;19912;-80
2021/07/31 07:51:15;;;;;;;;;;;17.80;99.90;;;;;;5093894;28;19945;-80
2021/07/31 07:53:41;;;;;;;;;;;17.90;99.90;;;;;;5093954;28;19955;-80
2021/07/31 07:56:06;;;;;;;;;;;17.80;99.90;;;;;;5094150;28;19990;-80
2021/07/31 07:58:32;;;;;;;;;;;17.90;99.90;;;;;;5094058;28;19910;-80
2021/07/31 08:00:58;;;;;;;;;;;17.80;99.90;;;;;;5093824;28;20308;-80
2021/07/31 08:03:23;;;;;;;;;;;18.00;99.90;;;;;;5093804;28;19904;-80
2021/07/31 08:05:49;;;;;;;;;;;17.90;99.90;;;;;;5093744;28;20290;-80
2021/07/31 08:08:14;;;;;;;;;;;18.00;99.90;;;;;;5093845;28;19904;-80
2021/07/31 08:10:40;;;;;;;;;;;17.90;99.90;;;;;;5093666;28;19957;-79
2021/07/31 08:13:06;;;;;;;;;;;18.40;99.90;;;;;;5093585;28;19955;-80
2021/07/31 08:15:31;;;;;;;;;;;18.70;99.90;;;;;;5093409;28;20291;-81
2021/07/31 08:17:57;;;;;;;;;;;18.70;99.90;;;;;;5093807;28;19904;-81
2021/07/31 08:20:23;;;;;;;;;;;19.40;99.90;;;;;;5057098;28;20284;-81
2021/07/31 08:22:48;;;;;;;;;;;19.90;99.90;;;;;;5072768;28;19904;-80
2021/07/31 08:25:14;;;;;;;;;;;20.30;99.90;;;;;;5073166;28;20364;-80
2021/07/31 08:27:40;;;;;;;;;;;20.30;99.90;;;;;;5086470;28;19935;-80
2021/07/31 08:30:06;;;;;;;;;;;20.20;99.90;;;;;;5092695;28;19904;-80
2021/07/31 08:32:32;;;;;;;;;;;20.70;99.90;;;;;;5074038;28;19912;-81
2021/07/31 08:35:00;;;;;;;;;;;20.60;99.90;;;;;;5093052;28;20281;-80
2021/07/31 08:37:27;;;;;;;;;;;21.20;99.90;;;;;;5073619;28;19909;-81
2021/07/31 08:39:53;;;;;;;;;;;21.50;99.90;;;;;;5072701;28;19911;-81
2021/07/31 08:42:18;;;;;;;;;;;21.50;99.90;;;;;;5071239;28;19904;-80
2021/07/31 08:44:44;;;;;;;;;;;21.00;99.90;;;;;;5072582;28;19904;-80
2021/07/31 08:47:10;;;;;;;;;;;21.30;99.90;;;;;;5072767;28;19908;-81
2021/07/31 08:49:37;;;;;;;;;;;21.10;99.90;;;;;;5072315;28;20033;-80
2021/07/31 08:52:03;;;;;;;;;;;21.70;99.10;;;;;;5075642;28;19908;-81
2021/07/31 08:54:29;;;;;;;;;;;21.70;99.60;;;;;;5075679;28;19908;-80
2021/07/31 08:56:55;;;;;;;;;;;21.80;98.80;;;;;;5076374;28;19926;-80
2021/07/31 08:59:27;;;;;;;;;;;21.60;98.60;;;;;;5078776;28;19912;-80
2021/07/31 09:01:53;;;;;;;;;;;22.10;98.60;;;;;;5096749;28;19966;-80
2021/07/31 09:04:19;;;;;;;;;;;21.50;99.60;;;;;;5096496;28;19935;-81
2021/07/31 09:06:45;;;;;;;;;;;21.70;99.30;;;;;;5095020;28;19911;-82
2021/07/31 09:09:11;;;;;;;;;;;21.80;98.80;;;;;;5057677;28;20281;-81
2021/07/31 09:11:53;;;;;;;;;;;22.20;97.50;;;;;;5076051;28;19904;-81
2021/07/31 09:14:19;;;;;;;;;;;23.20;95.30;;;;;;5075929;28;19908;-81
2021/07/31 09:16:45;;;;;;;;;;;23.80;92.70;;;;;;5076021;28;19915;-81
2021/07/31 09:19:13;;;;;;;;;;;22.90;93.90;;;;;;5056222;28;20280;-81
2021/07/31 09:21:40;;;;;;;;;;;21.70;96.10;;;;;;5055593;28;20399;-80
2021/07/31 09:24:16;;;;;;;;;;;22.00;97.10;;;;;;5056350;28;19905;-81
2021/07/31 09:26:48;;;;;;;;;;;22.80;96.00;;;;;;5055848;28;20003;-80
2021/07/31 09:29:14;;;;;;;;;;;22.70;94.90;;;;;;5056690;28;19911;-81
2021/07/31 09:31:49;;;;;;;;;;;22.80;95.20;;;;;;5075729;28;20011;-81
2021/07/31 09:34:33;;;;;;;;;;;22.90;94.60;;;;;;5059897;28;19908;-81
2021/07/31 09:37:05;;;;;;;;;;;23.00;93.60;;;;;;5055491;28;19997;-80
2021/07/31 09:39:49;;;;;;;;;;;22.50;94.80;;;;;;5057205;28;19904;-81
2021/07/31 09:42:27;;;;;;;;;;;22.60;94.50;;;;;;5075743;28;19912;-81
2021/07/31 09:44:53;;;;;;;;;;;22.00;95.50;;;;;;5075011;28;19919;-80
2021/07/31 09:47:18;;;;;;;;;;;21.70;96.10;;;;;;5075536;28;19905;-81
2021/07/31 09:49:46;;;;;;;;;;;21.30;99.00;;;;;;5070240;28;19905;-80
2021/07/31 09:52:15;;;;;;;;;;;21.50;99.90;;;;;;5055493;28;19984;-81
2021/07/31 09:54:42;;;;;;;;;;;21.20;99.90;;;;;;5055111;28;19909;-80
2021/07/31 09:57:08;;;;;;;;;;;21.30;99.90;;;;;;5053964;28;19904;-80
2021/07/31 09:59:34;;;;;;;;;;;21.50;99.90;;;;;;5054962;28;19905;-81
2021/07/31 10:02:01;;;;;;;;;;;21.20;99.90;;;;;;5054176;28;19908;-81
2021/07/31 10:04:28;;;;;;;;;;;21.60;98.60;;;;;;5053441;28;20389;-80
2021/07/31 10:06:55;;;;;;;;;;;21.60;99.50;;;;;;5069090;28;20288;-80
2021/07/31 10:09:20;;;;;;;;;;;22.00;96.90;;;;;;5073906;28;19931;-81
2021/07/31 10:11:46;;;;;;;;;;;22.50;96.20;;;;;;5054965;28;20369;-81
2021/07/31 10:14:12;;;;;;;;;;;23.30;95.60;;;;;;5054949;28;19913;-80
2021/07/31 10:16:38;;;;;;;;;;;24.90;92.40;;;;;;5054799;28;19921;-81
2021/07/31 10:19:05;;;;;;;;;;;26.10;90.90;;;;;;5054950;28;19995;-82
2021/07/31 10:21:33;;;;;;;;;;;29.80;78.30;;;;;;5034256;28;19939;-82
2021/07/31 10:23:58;;;;;;;;;;;30.00;71.90;;;;;;5061963;28;19905;-81
2021/07/31 10:26:24;;;;;;;;;;;29.50;68.00;;;;;;5074775;28;20270;-82
2021/07/31 10:28:50;;;;;;;;;;;28.50;66.40;;;;;;5075044;28;19916;-82
2021/07/31 10:31:26;;;;;;;;;;;29.20;67.40;;;;;;5073829;28;19927;-82
2021/07/31 10:33:52;;;;;;;;;;;29.00;63.20;;;;;;5074562;28;19958;-82
2021/07/31 10:36:34;;;;;;;;;;;30.50;63.40;;;;;;5074921;28;20315;-82
2021/07/31 10:39:19;;;;;;;;;;;33.00;57.60;;;;;;5075245;28;19908;-82
2021/07/31 10:41:55;;;;;;;;;;;33.30;52.70;;;;;;5074703;28;19904;-82
2021/07/31 10:44:21;;;;;;;;;;;32.90;53.60;;;;;;5073476;28;19905;-82
2021/07/31 10:46:46;;;;;;;;;;;33.20;51.00;;;;;;5073390;28;19915;-82
2021/07/31 10:49:30;;;;;;;;;;;31.10;53.30;;;;;;5075049;28;19971;-82
2021/07/31 10:51:56;;;;;;;;;;;30.10;50.00;;;;;;5074589;28;19904;-82
2021/07/31 10:54:41;;;;;;;;;;;30.80;51.20;;;;;;5074540;28;19911;-81
2021/07/31 10:57:07;;;;;;;;;;;31.30;50.60;;;;;;5073107;28;19904;-82
2021/07/31 10:59:33;;;;;;;;;;;31.00;52.80;;;;;;5074838;28;19911;-81
2021/07/31 11:02:21;;;;;;;;;;;30.70;53.40;;;;;;5073154;28;19926;-82
2021/07/31 11:04:59;;;;;;;;;;;30.10;52.50;;;;;;5071348;28;19908;-82
2021/07/31 11:07:27;;;;;;;;;;;28.50;54.10;;;;;;5074472;28;19910;-82
2021/07/31 11:10:13;;;;;;;;;;;28.20;57.50;;;;;;5074387;28;20312;-81
2021/07/31 11:12:42;;;;;;;;;;;26.70;58.30;;;;;;5070057;28;20418;-81
2021/07/31 11:15:08;;;;;;;;;;;24.90;65.70;;;;;;5072424;28;20365;-80
2021/07/31 11:17:36;;;;;;;;;;;22.80;75.70;;;;;;5074218;28;20018;-81
2021/07/31 11:20:02;;;;;;;;;;;21.70;84.10;;;;;;5072794;28;19912;-81
2021/07/31 11:22:28;;;;;;;;;;;20.20;94.20;;;;;;5073991;28;19905;-81
2021/07/31 11:24:57;;;;;;;;;;;19.90;96.40;;;;;;5073836;28;19908;-80
2021/07/31 11:27:23;;;;;;;;;;;19.50;97.00;;;;;;5073939;28;19905;-81
2021/07/31 11:29:53;;;;;;;;;;;19.40;98.30;;;;;;5073913;28;20391;-81
2021/07/31 11:32:26;;;;;;;;;;;19.20;98.70;;;;;;5073871;28;19904;-81
2021/07/31 11:34:52;;;;;;;;;;;19.30;99.50;;;;;;5074160;28;19930;-80
2021/07/31 11:37:17;;;;;;;;;;;19.60;97.90;;;;;;5073707;28;20280;-80
2021/07/31 11:39:46;;;;;;;;;;;19.80;97.90;;;;;;5073895;28;19935;-80
2021/07/31 11:42:19;;;;;;;;;;;20.50;96.20;;;;;;5073719;28;19958;-81
2021/07/31 11:44:44;;;;;;;;;;;20.80;95.60;;;;;;5074034;28;19908;-81
2021/07/31 11:47:10;;;;;;;;;;;21.30;93.30;;;;;;5073892;28;19934;-80
2021/07/31 11:49:36;;;;;;;;;;;22.30;92.00;;;;;;5073900;28;20387;-81
2021/07/31 11:52:03;;;;;;;;;;;22.60;90.20;;;;;;5073794;28;19912;-81
2021/07/31 11:54:29;;;;;;;;;;;23.60;87.70;;;;;;5073803;28;20261;-81
2021/07/31 11:56:56;;;;;;;;;;;24.30;85.30;;;;;;5073847;28;19950;-80
2021/07/31 11:59:23;;;;;;;;;;;24.70;83.60;;;;;;5073523;28;20276;-81
2021/07/31 12:01:52;;;;;;;;;;;24.40;78.90;;;;;;5073493;28;19926;-81
2021/07/31 12:04:38;;;;;;;;;;;24.90;76.70;;;;;;5073309;28;19908;-81
2021/07/31 12:07:08;;;;;;;;;;;25.40;77.00;;;;;;5069343;28;19958;-81
2021/07/31 12:09:34;;;;;;;;;;;26.30;74.50;;;;;;5073548;28;19904;-81
2021/07/31 12:11:59;;;;;;;;;;;26.80;70.10;;;;;;5073454;28;20434;-82
2021/07/31 12:14:34;;;;;;;;;;;27.20;64.90;;;;;;5073656;28;19992;-81
2021/07/31 12:17:10;;;;;;;;;;;29.30;58.40;;;;;;5071822;28;20002;-82
2021/07/31 12:19:42;;;;;;;;;;;27.70;58.00;;;;;;5073522;28;19908;-82
2021/07/31 12:22:08;;;;;;;;;;;29.00;58.10;;;;;;5073454;28;19905;-81
2021/07/31 12:24:34;;;;;;;;;;;27.20;60.30;;;;;;5073314;28;19909;-82
2021/07/31 12:27:00;;;;;;;;;;;26.10;63.80;;;;;;5076482;28;19962;-81
2021/07/31 12:29:36;;;;;;;;;;;26.00;64.40;;;;;;5076021;28;19908;-81
2021/07/31 12:32:20;;;;;;;;;;;25.70;64.50;;;;;;5077227;28;19904;-81
2021/07/31 12:34:45;;;;;;;;;;;25.60;64.20;;;;;;5075929;28;20008;-81
2021/07/31 12:37:11;;;;;;;;;;;27.20;61.90;;;;;;5077281;28;19948;-82
2021/07/31 12:39:36;;;;;;;;;;;27.30;59.50;;;;;;5075855;28;19911;-82
2021/07/31 12:42:03;;;;;;;;;;;27.80;57.90;;;;;;5077674;28;19911;-82
2021/07/31 12:44:30;;;;;;;;;;;28.60;59.40;;;;;;5076942;28;20440;-82
2021/07/31 12:46:59;;;;;;;;;;;29.20;56.40;;;;;;5075727;28;19905;-82
2021/07/31 12:49:25;;;;;;;;;;;32.20;50.40;;;;;;5075696;28;20427;-81
2021/07/31 12:51:50;;;;;;;;;;;34.90;46.60;;;;;;5075573;28;19908;-81
2021/07/31 12:54:16;;;;;;;;;;;35.30;43.40;;;;;;5075472;28;19904;-81
2021/07/31 12:56:42;;;;;;;;;;;33.50;45.20;;;;;;5075535;28;19953;-80
2021/07/31 12:59:07;;;;;;;;;;;34.40;45.00;;;;;;5076816;28;19905;-80
2021/07/31 13:01:33;;;;;;;;;;;32.50;46.30;;;;;;5077025;28;19919;-80
2021/07/31 13:03:59;;;;;;;;;;;32.80;47.30;;;;;;5075227;28;19909;-80
2021/07/31 13:06:24;;;;;;;;;;;28.80;50.20;;;;;;5076639;28;19911;-82
2021/07/31 13:08:50;;;;;;;;;;;30.40;49.40;;;;;;5076887;28;20006;-82
2021/07/31 13:11:16;;;;;;;;;;;29.20;49.30;;;;;;5076512;28;19991;-82
2021/07/31 13:13:41;;;;;;;;;;;28.60;52.00;;;;;;5076508;28;20287;-82
2021/07/31 13:16:07;;;;;;;;;;;27.40;52.20;;;;;;5076086;28;19917;-82
2021/07/31 13:18:32;;;;;;;;;;;27.00;53.10;;;;;;5076613;28;19908;-82
2021/07/31 13:20:58;;;;;;;;;;;27.00;53.90;;;;;;5076409;28;19904;-82
2021/07/31 13:23:24;;;;;;;;;;;26.70;55.60;;;;;;5076239;28;19954;-83
2021/07/31 13:25:49;;;;;;;;;;;28.00;53.90;;;;;;5074970;28;19932;-82
2021/07/31 13:28:15;;;;;;;;;;;27.70;54.90;;;;;;5076505;28;20383;-82
2021/07/31 13:30:41;;;;;;;;;;;27.50;56.40;;;;;;5076356;28;19911;-82
2021/07/31 13:33:07;;;;;;;;;;;28.10;57.00;;;;;;5076178;28;19904;-82
2021/07/31 13:35:34;;;;;;;;;;;28.10;57.30;;;;;;5074789;28;19919;-82
2021/07/31 13:38:00;;;;;;;;;;;27.80;57.00;;;;;;5075877;28;20002;-82
2021/07/31 13:40:27;;;;;;;;;;;28.50;56.10;;;;;;5076188;28;20285;-82
2021/07/31 13:42:55;;;;;;;;;;;28.40;55.40;;;;;;5075763;28;20423;-82
2021/07/31 13:45:22;;;;;;;;;;;29.10;55.70;;;;;;5075870;28;20015;-82
2021/07/31 13:47:48;;;;;;;;;;;29.70;54.10;;;;;;5074559;28;19995;-82
2021/07/31 13:50:14;;;;;;;;;;;29.80;53.00;;;;;;5075808;28;19940;-82
2021/07/31 13:52:40;;;;;;;;;;;29.30;53.30;;;;;;5074467;28;19908;-82
2021/07/31 13:55:06;;;;;;;;;;;29.20;53.50;;;;;;5074422;28;19904;-83
2021/07/31 13:57:32;;;;;;;;;;;28.70;54.80;;;;;;5075610;28;20426;-82
2021/07/31 13:59:59;;;;;;;;;;;28.50;55.70;;;;;;5074392;28;19904;-82
2021/07/31 14:02:25;;;;;;;;;;;29.00;54.50;;;;;;5075607;28;20372;-83
2021/07/31 14:04:51;;;;;;;;;;;29.40;53.30;;;;;;5075448;28;19908;-82
2021/07/31 14:07:16;;;;;;;;;;;29.60;53.50;;;;;;5075501;28;19905;-82
2021/07/31 14:09:42;;;;;;;;;;;29.40;54.50;;;;;;5075577;28;19916;-83
2021/07/31 14:12:07;;;;;;;;;;;28.80;54.90;;;;;;5075442;28;19997;-82
2021/07/31 14:14:33;;;;;;;;;;;29.70;54.20;;;;;;5075171;28;19904;-82